Time;durP1;ratioP1;P1;durP2;ratioP2;P2;SDS_P1;SDS_P2;PMS_P1;PMS_P2;Temp;Humidity;BMP_temperature;BMP_pressure;BME280_temperature;BME280_humidity;BME280_pressure;Samples;Min_cycle;Max_cycle;Signal;HPM_P1;HPM_P2
2022/06/20 07:41:48;;;;;;;0.13;0.13;;;;;;;25.39;100.00;100882.31;1893662;54;10001889;-63
2022/06/20 07:44:24;;;;;;;0.30;0.30;;;;;;;24.98;100.00;100888.06;2616472;54;20688;-65
2022/06/20 07:46:59;;;;;;;0.00;0.00;;;;;;;25.51;100.00;100881.66;2616359;54;20133;-65
2022/06/20 07:49:35;;;;;;;0.43;0.43;;;;;;;25.40;100.00;100884.78;2616276;54;20169;-63
2022/06/20 07:52:12;;;;;;;0.00;0.00;;;;;;;25.27;100.00;100883.78;2616226;54;20141;-64
2022/06/20 07:54:48;;;;;;;0.35;0.35;;;;;;;25.27;100.00;100889.94;2616410;54;20260;-63
2022/06/20 07:57:25;;;;;;;0.28;0.28;;;;;;;25.29;100.00;100887.06;2616497;39;20595;-64
2022/06/20 08:00:00;;;;;;;0.00;0.00;;;;;;;25.37;100.00;100886.97;2617215;54;20709;-64
2022/06/20 08:02:35;;;;;;;0.03;0.03;;;;;;;25.46;100.00;100888.53;2616694;39;20539;-64
2022/06/20 08:05:07;;;;;;;0.00;0.00;;;;;;;25.72;100.00;100890.75;2616601;39;20562;-64
2022/06/20 08:07:42;;;;;;;0.00;0.00;;;;;;;25.42;100.00;100888.09;2617108;54;20168;-64
2022/06/20 08:10:19;;;;;;;0.38;0.38;;;;;;;25.58;100.00;100882.59;2619529;39;20545;-64
2022/06/20 08:13:01;;;;;;;0.00;0.00;;;;;;;25.57;100.00;100886.25;2617826;54;20184;-64
2022/06/20 08:15:36;;;;;;;0.05;0.05;;;;;;;25.59;100.00;100881.59;2617309;54;20143;-64
2022/06/20 08:18:06;;;;;;;0.00;0.00;;;;;;;25.80;100.00;100888.78;2617112;54;20685;-63
2022/06/20 08:20:44;;;;;;;0.52;0.45;;;;;;;25.52;100.00;100878.00;2617204;54;20133;-68
2022/06/20 08:23:21;;;;;;;0.00;0.00;;;;;;;25.68;100.00;100878.84;2616921;54;20148;-63
2022/06/20 08:25:55;;;;;;;1.85;1.25;;;;;;;25.28;100.00;100883.56;2617182;54;20141;-62
2022/06/20 08:28:40;;;;;;;1.60;0.52;;;;;;;25.30;100.00;100876.28;2617176;54;20142;-63
2022/06/20 08:31:18;;;;;;;0.65;0.65;;;;;;;25.38;100.00;100884.16;2617103;54;20148;-64
2022/06/20 08:33:55;;;;;;;0.20;0.20;;;;;;;25.42;100.00;100885.44;2616958;54;20155;-64
2022/06/20 08:36:31;;;;;;;0.47;0.47;;;;;;;25.30;100.00;100878.91;2617144;54;20141;-64
2022/06/20 08:39:19;;;;;;;0.03;0.03;;;;;;;25.71;100.00;100873.97;2617087;54;20149;-64
2022/06/20 08:42:07;;;;;;;0.00;0.00;;;;;;;25.64;100.00;100851.00;2617596;54;20207;-64
2022/06/20 08:45:14;;;;;;;0.28;0.28;;;;;;;25.81;100.00;100860.38;2617891;46;20167;-64
2022/06/20 08:48:10;;;;;;;0.57;0.35;;;;;;;25.66;100.00;100859.59;2616558;54;20149;-65
2022/06/20 08:51:00;;;;;;;0.15;0.15;;;;;;;25.77;100.00;100851.94;2617049;54;20165;-65
2022/06/20 08:54:07;;;;;;;0.00;0.00;;;;;;;25.86;100.00;100853.50;2616937;47;20142;-64
2022/06/20 08:56:59;;;;;;;0.20;0.20;;;;;;;25.99;100.00;100850.16;2617097;54;20141;-64
2022/06/20 09:00:01;;;;;;;0.00;0.00;;;;;;;25.86;100.00;100852.66;2616701;54;20149;-64
2022/06/20 09:02:47;;;;;;;0.10;0.10;;;;;;;25.82;98.29;100840.75;2616835;54;20148;-64
2022/06/20 09:05:54;;;;;;;0.98;0.75;;;;;;;25.87;95.78;100841.84;2616913;54;20146;-64
2022/06/20 09:08:49;;;;;;;0.45;0.45;;;;;;;26.01;97.20;100837.47;2617095;54;20146;-64
2022/06/20 09:11:34;;;;;;;0.45;0.45;;;;;;;26.01;96.84;100840.97;2616909;54;20619;-63
2022/06/20 09:14:19;;;;;;;0.28;0.20;;;;;;;26.09;92.93;100834.69;2616996;54;20141;-65
2022/06/20 09:17:00;;;;;;;1.85;1.63;;;;;;;25.98;98.24;100835.22;2616827;46;20685;-64
2022/06/20 09:19:48;;;;;;;0.20;0.20;;;;;;;25.92;100.00;100841.25;2617258;54;20141;-65
2022/06/20 09:22:33;;;;;;;0.75;0.47;;;;;;;25.98;100.00;100836.03;2616742;54;20142;-64
2022/06/20 09:25:15;;;;;;;0.32;0.32;;;;;;;26.17;100.00;100831.91;2617085;54;20217;-64
2022/06/20 09:27:56;;;;;;;0.20;0.20;;;;;;;26.05;100.00;100831.59;2616927;54;20142;-64
2022/06/20 09:30:35;;;;;;;2.28;1.75;;;;;;;26.07;100.00;100831.41;2616844;54;20141;-64
2022/06/20 09:33:43;;;;;;;0.35;0.35;;;;;;;26.20;100.00;100833.44;2617501;39;20521;-63
2022/06/20 09:36:52;;;;;;;0.85;0.85;;;;;;;25.95;100.00;100833.75;2617827;51;20142;-64
2022/06/20 09:39:35;;;;;;;0.13;0.13;;;;;;;25.84;100.00;100831.56;2615934;54;20141;-64
2022/06/20 09:42:17;;;;;;;0.52;0.52;;;;;;;25.89;100.00;100820.38;2616866;54;20163;-64
2022/06/20 09:44:58;;;;;;;0.65;0.65;;;;;;;26.05;100.00;100826.28;2616732;54;20148;-64
2022/06/20 09:47:40;;;;;;;0.40;0.40;;;;;;;25.98;100.00;100820.09;2616745;54;20142;-63
2022/06/20 09:50:32;;;;;;;0.00;0.00;;;;;;;26.07;100.00;100824.28;2617201;39;20557;-63
2022/06/20 09:53:13;;;;;;;0.22;0.22;;;;;;;26.01;100.00;100822.34;2616766;54;20149;-64
2022/06/20 09:55:58;;;;;;;0.00;0.00;;;;;;;26.26;100.00;100816.69;2616796;46;20253;-64
2022/06/20 09:58:36;;;;;;;1.27;1.25;;;;;;;26.07;100.00;100823.44;2616572;54;20141;-63
2022/06/20 10:01:16;;;;;;;0.00;0.00;;;;;;;25.98;100.00;100819.25;2616618;54;20149;-63
2022/06/20 10:03:56;;;;;;;0.75;0.32;;;;;;;25.95;100.00;100824.97;2616589;54;20148;-64
2022/06/20 10:06:50;;;;;;;0.43;0.43;;;;;;;25.95;100.00;100817.81;2616670;54;20141;-64
2022/06/20 10:09:30;;;;;;;0.10;0.10;;;;;;;25.92;100.00;100818.16;2616718;54;20154;-65
2022/06/20 10:12:11;;;;;;;0.38;0.38;;;;;;;25.87;100.00;100811.78;2616709;54;20663;-64
2022/06/20 10:14:55;;;;;;;0.10;0.10;;;;;;;26.01;100.00;100808.22;2616787;54;20150;-63
2022/06/20 10:17:33;;;;;;;0.73;0.73;;;;;;;25.91;100.00;100805.91;2618056;54;20141;-64
2022/06/20 10:20:13;;;;;;;0.70;0.70;;;;;;;26.04;100.00;100805.19;2617651;54;20148;-63
2022/06/20 10:22:52;;;;;;;0.00;0.00;;;;;;;26.20;100.00;100807.63;2618479;54;20148;-63
2022/06/20 10:25:37;;;;;;;0.65;0.65;;;;;;;26.15;100.00;100804.69;2618222;49;20182;-64
2022/06/20 10:28:17;;;;;;;0.03;0.03;;;;;;;26.05;100.00;100801.50;2616869;54;20706;-64
2022/06/20 10:30:51;;;;;;;0.50;0.32;;;;;;;25.96;100.00;100807.97;2616812;54;20164;-64
2022/06/20 10:33:34;;;;;;;1.45;1.00;;;;;;;26.09;100.00;100798.28;2616510;54;20146;-64
2022/06/20 10:36:21;;;;;;;0.00;0.00;;;;;;;25.95;100.00;100801.03;2616596;54;20149;-64
2022/06/20 10:39:11;;;;;;;0.00;0.00;;;;;;;26.12;100.00;100790.97;2616432;54;20697;-64
2022/06/20 10:42:05;;;;;;;0.50;0.50;;;;;;;25.98;100.00;100792.66;2616532;54;20760;-64
2022/06/20 10:44:51;;;;;;;0.52;0.35;;;;;;;26.12;100.00;100794.41;2616523;54;20141;-63
2022/06/20 10:47:27;;;;;;;0.32;0.32;;;;;;;26.25;100.00;100791.09;2616450;54;20141;-64
2022/06/20 10:50:12;;;;;;;0.85;0.85;;;;;;;25.97;100.00;100801.63;2616966;54;20149;-64
2022/06/20 10:53:03;;;;;;;1.30;1.20;;;;;;;26.11;100.00;100798.13;2616482;54;20150;-65
2022/06/20 10:55:46;;;;;;;0.00;0.00;;;;;;;26.15;100.00;100803.88;2616580;54;20142;-63
2022/06/20 10:58:29;;;;;;;0.70;0.70;;;;;;;26.22;100.00;100794.97;2616672;54;20148;-63
2022/06/20 11:01:11;;;;;;;1.08;1.08;;;;;;;26.17;100.00;100802.66;2616248;54;20674;-65
2022/06/20 11:03:56;;;;;;;0.10;0.10;;;;;;;26.39;100.00;100791.03;2616414;46;20678;-63
2022/06/20 11:06:39;;;;;;;1.27;1.17;;;;;;;26.07;100.00;100788.88;2616410;54;20142;-62
2022/06/20 11:09:21;;;;;;;3.72;0.65;;;;;;;25.95;100.00;100788.56;2617663;54;20149;-64
2022/06/20 11:12:01;;;;;;;0.20;0.20;;;;;;;25.90;100.00;100796.28;2616526;54;20145;-64
2022/06/20 11:14:46;;;;;;;1.20;1.05;;;;;;;25.84;100.00;100790.91;2616597;54;20145;-64
2022/06/20 11:17:35;;;;;;;1.08;0.95;;;;;;;25.63;100.00;100789.03;2616256;54;20170;-64
2022/06/20 11:20:17;;;;;;;1.45;1.42;;;;;;;25.58;100.00;100786.94;2616208;54;20149;-64
2022/06/20 11:22:54;;;;;;;0.45;0.45;;;;;;;25.69;100.00;100782.13;2616478;54;20141;-64
2022/06/20 11:25:45;;;;;;;2.92;1.23;;;;;;;25.68;100.00;100769.88;2616371;47;20164;-64
2022/06/20 11:28:59;;;;;;;0.00;0.00;;;;;;;26.03;100.00;100785.78;2616647;54;20169;-64
2022/06/20 11:31:41;;;;;;;0.50;0.50;;;;;;;26.20;100.00;100781.00;2615083;53;20141;-64
2022/06/20 11:34:44;;;;;;;1.13;0.90;;;;;;;25.93;100.00;100771.94;2617935;31;20669;-63
2022/06/20 11:37:36;;;;;;;0.22;0.20;;;;;;;26.07;100.00;100770.25;2616484;54;20148;-64
2022/06/20 11:40:27;;;;;;;0.47;0.47;;;;;;;26.28;100.00;100766.78;2616119;54;20207;-63
2022/06/20 11:43:28;;;;;;;1.90;1.80;;;;;;;26.13;100.00;100764.16;2616742;54;20142;-64
2022/06/20 11:46:11;;;;;;;0.13;0.13;;;;;;;26.32;100.00;100757.41;2616272;54;20145;-63
2022/06/20 11:48:56;;;;;;;0.73;0.57;;;;;;;26.44;100.00;100754.00;2616266;54;20141;-64
2022/06/20 11:51:40;;;;;;;0.77;0.73;;;;;;;26.21;100.00;100750.75;2616936;54;20148;-64
2022/06/20 11:54:21;;;;;;;0.00;0.00;;;;;;;26.51;100.00;100740.75;2617643;54;20679;-63
2022/06/20 11:56:57;;;;;;;0.28;0.28;;;;;;;26.97;100.00;100744.50;2616438;54;20148;-64
2022/06/20 11:59:39;;;;;;;0.35;0.35;;;;;;;26.61;100.00;100743.03;2616335;54;20142;-64
2022/06/20 12:02:22;;;;;;;0.90;0.90;;;;;;;27.49;100.00;100736.94;2616403;54;20141;-64
2022/06/20 12:04:59;;;;;;;0.50;0.50;;;;;;;28.37;100.00;100744.63;2616241;54;20133;-64
2022/06/20 12:07:57;;;;;;;0.45;0.20;;;;;;;29.07;99.10;100735.03;2616801;39;20529;-65
2022/06/20 12:10:34;;;;;;;0.60;0.60;;;;;;;30.27;87.51;100740.28;2616204;54;20261;-64
2022/06/20 12:13:14;;;;;;;0.55;0.55;;;;;;;30.84;81.30;100739.09;2616736;54;20669;-63
2022/06/20 12:15:56;;;;;;;0.90;0.88;;;;;;;31.42;77.25;100738.59;2616113;54;20675;-65
2022/06/20 12:24:23;;;;;;;1.02;0.57;;;;;;;32.21;65.12;100734.75;2616226;47;20148;-65
2022/06/20 12:26:54;;;;;;;0.28;0.28;;;;;;;32.41;63.15;100724.47;2616676;54;20163;-63
2022/06/20 12:29:28;;;;;;;0.95;0.75;;;;;;;31.43;68.46;100716.09;2616444;54;20593;-63
2022/06/20 12:32:02;;;;;;;0.10;0.10;;;;;;;32.09;71.04;100721.31;2616350;47;20276;-64
2022/06/20 12:34:42;;;;;;;5.28;4.95;;;;;;;31.74;70.60;100717.72;2618413;54;20141;-63
2022/06/20 12:37:19;;;;;;;0.73;0.73;;;;;;;32.26;67.92;100721.44;2618292;54;20141;-64
2022/06/20 12:39:59;;;;;;;1.23;1.17;;;;;;;31.63;68.16;100715.84;2616306;54;20223;-64
2022/06/20 12:42:41;;;;;;;0.00;0.00;;;;;;;32.44;66.45;100713.25;2616802;54;20150;-64
2022/06/20 12:45:41;;;;;;;0.57;0.57;;;;;;;31.84;66.73;100715.31;2616251;54;20141;-64
2022/06/20 12:48:28;;;;;;;0.75;0.75;;;;;;;31.58;69.32;100709.28;2616266;47;20671;-64
2022/06/20 12:51:07;;;;;;;0.35;0.20;;;;;;;32.22;66.57;100709.53;2616573;39;20538;-63
2022/06/20 12:53:54;;;;;;;0.35;0.35;;;;;;;31.71;68.14;100697.53;2616200;54;20146;-63
2022/06/20 12:56:48;;;;;;;0.15;0.13;;;;;;;31.82;69.92;100683.31;2616684;54;20167;-64
2022/06/20 12:59:48;;;;;;;0.70;0.70;;;;;;;31.72;70.85;100693.00;2617012;54;20150;-63
2022/06/20 13:02:25;;;;;;;0.65;0.52;;;;;;;30.96;75.41;100691.75;2617088;54;20143;-63
2022/06/20 13:05:26;;;;;;;14.50;0.57;;;;;;;31.58;70.93;100684.31;2616690;47;20245;-64
2022/06/20 13:08:20;;;;;;;1.85;0.95;;;;;;;32.49;67.16;100687.31;2616894;54;20141;-64
2022/06/20 13:10:59;;;;;;;1.33;0.82;;;;;;;31.84;67.07;100686.59;2616777;46;20161;-64
2022/06/20 13:13:48;;;;;;;0.22;0.22;;;;;;;32.43;65.66;100685.56;2617146;54;20141;-63
2022/06/20 13:16:26;;;;;;;0.43;0.28;;;;;;;32.93;63.57;100693.09;2616892;54;20608;-64
2022/06/20 13:19:16;;;;;;;0.50;0.50;;;;;;;31.72;69.35;100683.09;2616788;54;20178;-64
2022/06/20 13:21:51;;;;;;;3.50;3.20;;;;;;;31.25;74.06;100673.25;2617183;39;20573;-63
2022/06/20 13:24:29;;;;;;;0.03;0.03;;;;;;;31.72;69.67;100671.53;2616764;51;20676;-64
2022/06/20 13:27:11;;;;;;;0.55;0.52;;;;;;;31.11;72.21;100677.97;2616814;47;20145;-65
2022/06/20 13:29:53;;;;;;;0.63;0.52;;;;;;;31.15;73.07;100675.66;2618077;54;20673;-65
2022/06/20 13:32:30;;;;;;;0.45;0.45;;;;;;;31.18;69.09;100675.19;2617559;39;20558;-65
2022/06/20 13:35:08;;;;;;;0.77;0.77;;;;;;;30.69;74.54;100677.06;2616768;54;20148;-65
2022/06/20 13:37:49;;;;;;;0.30;0.30;;;;;;;31.53;70.05;100673.44;2616962;54;20253;-63
2022/06/20 13:40:29;;;;;;;0.25;0.25;;;;;;;31.64;67.96;100678.06;2616873;54;20196;-64
2022/06/20 13:43:20;;;;;;;0.00;0.00;;;;;;;32.03;67.49;100668.50;2617519;54;20145;-64
2022/06/20 13:46:01;;;;;;;0.30;0.22;;;;;;;32.23;64.03;100665.50;2616826;54;20142;-64
2022/06/20 13:48:38;;;;;;;0.63;0.63;;;;;;;32.51;63.54;100657.50;2616658;54;20667;-64
2022/06/20 13:51:36;;;;;;;0.10;0.10;;;;;;;33.36;59.13;100662.97;2617424;39;20524;-64
2022/06/20 13:54:18;;;;;;;0.20;0.20;;;;;;;33.53;58.36;100663.81;2616899;54;20232;-64
2022/06/20 13:57:00;;;;;;;0.52;0.52;;;;;;;32.23;61.61;100663.63;2616692;54;20142;-64
2022/06/20 13:59:48;;;;;;;0.98;0.98;;;;;;;32.09;62.60;100656.88;2617004;54;20149;-65
2022/06/20 14:02:36;;;;;;;0.20;0.20;;;;;;;32.28;62.14;100642.25;2616585;54;20142;-65
2022/06/20 14:05:14;;;;;;;0.68;0.68;;;;;;;31.66;63.03;100651.00;2616941;54;20141;-63
2022/06/20 14:07:47;;;;;;;0.30;0.30;;;;;;;32.19;62.72;100648.22;2616609;54;20156;-63
2022/06/20 14:10:31;;;;;;;0.15;0.15;;;;;;;33.08;58.00;100644.16;2616717;47;20142;-63
2022/06/20 14:13:05;;;;;;;0.15;0.15;;;;;;;33.29;56.46;100641.63;2616797;48;20149;-64
2022/06/20 14:15:38;;;;;;;0.57;0.45;;;;;;;32.83;55.59;100642.59;2616751;54;20154;-64
2022/06/20 14:18:20;;;;;;;0.28;0.28;;;;;;;32.55;57.83;100634.50;2618238;54;20153;-63
2022/06/20 14:21:02;;;;;;;0.75;0.75;;;;;;;32.74;56.94;100627.91;2616954;54;20170;-65
2022/06/20 14:23:35;;;;;;;0.90;0.57;;;;;;;32.78;56.67;100637.13;2616816;54;20233;-64
2022/06/20 14:26:08;;;;;;;0.30;0.20;;;;;;;31.99;57.42;100635.13;2616550;54;20670;-64
2022/06/20 14:28:42;;;;;;;0.00;0.00;;;;;;;33.22;55.09;100626.69;2616708;54;20142;-64
2022/06/20 14:31:21;;;;;;;2.75;1.33;;;;;;;32.62;56.62;100629.03;2616557;54;20141;-63
2022/06/20 14:33:59;;;;;;;0.35;0.35;;;;;;;32.42;56.56;100624.81;2616756;54;20697;-64
2022/06/20 14:36:33;;;;;;;0.45;0.45;;;;;;;32.18;56.38;100617.84;2616500;54;20148;-64
2022/06/20 14:39:13;;;;;;;0.17;0.17;;;;;;;31.80;58.64;100612.97;2616737;47;20597;-62
2022/06/20 14:42:04;;;;;;;0.47;0.47;;;;;;;33.11;55.15;100606.00;2616925;49;20284;-63
2022/06/20 14:44:39;;;;;;;0.82;0.80;;;;;;;32.25;56.40;100602.47;2616611;54;20142;-64
2022/06/20 14:47:31;;;;;;;0.20;0.20;;;;;;;32.86;55.67;100607.19;2616513;54;20141;-63
2022/06/20 14:50:15;;;;;;;0.03;0.03;;;;;;;32.98;56.43;100617.09;2616573;54;20142;-64
2022/06/20 14:52:51;;;;;;;0.50;0.50;;;;;;;32.10;57.75;100606.69;2616436;54;20143;-63
2022/06/20 14:55:29;;;;;;;0.30;0.30;;;;;;;33.09;54.60;100608.13;2616566;48;20166;-64
2022/06/20 14:58:06;;;;;;;0.85;0.85;;;;;;;32.61;56.41;100606.72;2619001;39;20537;-62
2022/06/20 15:00:40;;;;;;;0.10;0.10;;;;;;;33.16;55.78;100604.25;2619118;47;20137;-65
2022/06/20 15:03:23;;;;;;;0.70;0.68;;;;;;;34.11;52.90;100603.31;2616458;54;20142;-64
2022/06/20 15:06:06;;;;;;;0.77;0.75;;;;;;;33.08;55.21;100601.13;2616350;54;20141;-63
2022/06/20 15:08:50;;;;;;;0.20;0.20;;;;;;;33.97;53.80;100610.94;2619388;47;20147;-64
2022/06/20 15:11:27;;;;;;;0.60;0.60;;;;;;;33.56;54.04;100604.13;2617152;47;20681;-64
2022/06/20 15:14:04;;;;;;;0.20;0.20;;;;;;;33.82;52.28;100605.34;2616746;47;20149;-64
2022/06/20 15:16:43;;;;;;;0.52;0.40;;;;;;;33.78;52.54;100615.78;2616475;54;20148;-64
2022/06/20 15:19:31;;;;;;;0.77;0.77;;;;;;;32.61;56.49;100595.16;2616668;39;20610;-64
2022/06/20 15:22:18;;;;;;;1.15;1.10;;;;;;;32.69;56.59;100598.28;2616484;54;20141;-65
2022/06/20 15:24:56;;;;;;;0.90;0.63;;;;;;;33.04;56.61;100592.72;2616825;54;20141;-64
2022/06/20 15:27:31;;;;;;;0.40;0.40;;;;;;;32.99;55.98;100594.50;2616759;47;20141;-64
2022/06/20 15:30:08;;;;;;;1.08;0.77;;;;;;;32.94;55.70;100585.28;2616466;54;20145;-64
2022/06/20 15:32:42;;;;;;;0.22;0.22;;;;;;;33.07;56.10;100588.72;2616260;54;20149;-65
2022/06/20 15:38:27;;;;;;;0.93;0.68;;;;;;;32.22;60.47;100588.69;2616600;47;20141;-64
2022/06/20 15:41:04;;;;;;;0.30;0.30;;;;;;;31.65;62.90;100591.16;2616665;54;20203;-63
2022/06/20 15:43:47;;;;;;;0.10;0.10;;;;;;;31.71;63.93;100592.88;2616601;54;20292;-64
2022/06/20 15:46:23;;;;;;;0.55;0.30;;;;;;;31.72;62.50;100589.16;2616380;54;20142;-64
2022/06/20 15:48:59;;;;;;;0.32;0.32;;;;;;;32.18;62.43;100584.84;2616315;54;20148;-64
2022/06/20 15:51:37;;;;;;;0.70;0.70;;;;;;;32.29;60.39;100590.19;2616097;54;20141;-64
2022/06/20 15:54:28;;;;;;;0.15;0.15;;;;;;;31.68;62.12;100585.31;2616430;54;20141;-64
2022/06/20 15:57:11;;;;;;;0.95;0.90;;;;;;;31.95;64.45;100586.47;2617442;54;20142;-65
2022/06/20 16:00:11;;;;;;;0.05;0.05;;;;;;;32.12;61.84;100586.59;2616369;54;20142;-64
2022/06/20 16:03:03;;;;;;;0.65;0.63;;;;;;;31.86;62.79;100587.84;2616236;54;20701;-64
2022/06/20 16:05:38;;;;;;;0.25;0.25;;;;;;;31.82;64.39;100597.44;2616807;39;20532;-64
2022/06/20 16:08:21;;;;;;;0.22;0.22;;;;;;;32.51;62.25;100595.72;2616155;47;20141;-64
2022/06/20 16:10:58;;;;;;;1.45;1.27;;;;;;;32.53;61.56;100607.06;2616329;54;20142;-65
2022/06/20 16:13:33;;;;;;;0.43;0.43;;;;;;;32.57;61.74;100610.91;2616784;39;20539;-69
2022/06/20 16:16:09;;;;;;;0.60;0.57;;;;;;;31.86;63.56;100603.13;2616301;54;20202;-65
2022/06/20 16:18:45;;;;;;;0.15;0.15;;;;;;;31.78;65.61;100603.50;2616344;54;20148;-64
2022/06/20 16:21:20;;;;;;;0.10;0.10;;;;;;;32.11;64.38;100600.25;2616719;47;20166;-64
2022/06/20 16:23:54;;;;;;;0.60;0.60;;;;;;;31.62;66.93;100588.91;2616109;54;20166;-65
2022/06/20 16:26:33;;;;;;;0.70;0.70;;;;;;;31.81;64.65;100585.09;2616086;54;20667;-63
2022/06/20 16:29:17;;;;;;;1.10;0.32;;;;;;;31.44;69.15;100586.31;2616242;54;20141;-64
2022/06/20 16:31:51;;;;;;;0.10;0.10;;;;;;;32.15;64.92;100582.59;2616718;51;20142;-64
2022/06/20 16:34:49;;;;;;;0.20;0.20;;;;;;;32.14;63.92;100584.47;2616956;54;20141;-64
2022/06/20 16:37:23;;;;;;;1.95;1.45;;;;;;;31.83;65.19;100588.34;2616973;54;20142;-64
2022/06/20 16:39:55;;;;;;;0.40;0.20;;;;;;;31.44;67.33;100591.66;2617103;47;20207;-64
2022/06/20 16:42:39;;;;;;;1.58;1.05;;;;;;;31.30;67.59;100585.69;2617019;54;20667;-64
2022/06/20 16:45:34;;;;;;;0.00;0.00;;;;;;;31.04;70.39;100589.63;2616977;54;20141;-63
2022/06/20 16:48:21;;;;;;;0.55;0.43;;;;;;;30.97;71.94;100588.03;2616897;54;20141;-63
2022/06/20 16:50:59;;;;;;;0.85;0.70;;;;;;;29.81;77.12;100587.31;2616956;54;20141;-63
2022/06/20 16:53:39;;;;;;;1.45;0.22;;;;;;;30.68;74.40;100584.31;2616994;54;20667;-63
2022/06/20 16:56:14;;;;;;;0.68;0.68;;;;;;;30.41;73.79;100583.78;2617035;54;20679;-63
2022/06/20 16:58:52;;;;;;;0.43;0.43;;;;;;;30.40;73.55;100590.19;2619943;54;20149;-63
2022/06/20 17:01:39;;;;;;;1.65;1.00;;;;;;;30.76;71.21;100586.69;2618389;54;20236;-64
2022/06/20 17:04:20;;;;;;;0.20;0.20;;;;;;;30.20;76.55;100585.09;2616868;54;20141;-64
2022/06/20 17:06:59;;;;;;;0.20;0.20;;;;;;;29.94;76.56;100596.06;2616974;54;20134;-65
2022/06/20 17:09:40;;;;;;;0.45;0.45;;;;;;;29.78;77.25;100593.91;2616737;54;20141;-64
2022/06/20 17:12:22;;;;;;;0.00;0.00;;;;;;;29.92;76.30;100598.16;2616976;54;20142;-63
2022/06/20 17:15:10;;;;;;;0.15;0.15;;;;;;;29.55;80.21;100605.22;2617441;39;20550;-63
2022/06/20 17:17:49;;;;;;;0.00;0.00;;;;;;;29.58;82.86;100598.63;2616600;54;20149;-64
2022/06/20 17:20:29;;;;;;;0.65;0.40;;;;;;;29.29;85.12;100595.53;2616720;54;20149;-64
2022/06/20 17:23:13;;;;;;;0.20;0.20;;;;;;;29.08;89.60;100584.38;2616938;54;20683;-63
2022/06/20 17:26:06;;;;;;;1.02;0.93;;;;;;;28.58;93.57;100591.38;2617519;39;20546;-64
2022/06/20 17:28:51;;;;;;;0.00;0.00;;;;;;;28.86;93.74;100591.06;2616930;54;20675;-64
2022/06/20 17:31:37;;;;;;;0.00;0.00;;;;;;;28.53;98.27;100594.69;2617031;54;20141;-64
2022/06/20 17:34:15;;;;;;;0.35;0.10;;;;;;;28.16;100.00;100593.59;2616870;47;20175;-65
2022/06/20 17:37:00;;;;;;;0.10;0.10;;;;;;;27.84;100.00;100587.25;2616801;47;20141;-65
2022/06/20 17:39:43;;;;;;;0.13;0.13;;;;;;;27.15;100.00;100594.81;2616683;54;20701;-63
2022/06/20 17:42:25;;;;;;;0.22;0.22;;;;;;;27.09;100.00;100590.28;2616746;54;20142;-63
2022/06/20 17:45:03;;;;;;;1.15;0.90;;;;;;;26.72;100.00;100590.78;2617051;54;20148;-64
2022/06/20 17:47:43;;;;;;;0.10;0.10;;;;;;;26.08;100.00;100591.84;2619358;54;20149;-64
2022/06/20 17:50:33;;;;;;;0.20;0.20;;;;;;;25.84;100.00;100594.97;2619036;54;20148;-63
2022/06/20 17:53:19;;;;;;;0.13;0.13;;;;;;;25.80;100.00;100584.94;2616946;54;20138;-63
2022/06/20 17:55:59;;;;;;;0.20;0.20;;;;;;;25.68;100.00;100584.63;2616940;54;20148;-63
2022/06/20 17:58:43;;;;;;;0.30;0.30;;;;;;;25.42;100.00;100589.69;2616939;54;20157;-63
2022/06/20 18:01:18;;;;;;;0.00;0.00;;;;;;;25.45;100.00;100591.97;2616998;54;20148;-64
2022/06/20 18:03:56;;;;;;;0.00;0.00;;;;;;;25.40;100.00;100587.22;2616735;54;20141;-63
2022/06/20 18:06:31;;;;;;;0.00;0.00;;;;;;;25.47;100.00;100589.94;2616999;54;20427;-62
2022/06/20 18:09:09;;;;;;;0.68;0.68;;;;;;;25.36;100.00;100593.91;2617198;39;20545;-64
2022/06/20 18:11:47;;;;;;;0.52;0.47;;;;;;;25.18;100.00;100604.19;2617410;39;20514;-64
2022/06/20 18:14:28;;;;;;;0.00;0.00;;;;;;;25.00;100.00;100603.78;2618284;39;20631;-64
2022/06/20 18:17:04;;;;;;;0.00;0.00;;;;;;;25.17;100.00;100606.00;2617063;54;20149;-64
2022/06/20 18:19:48;;;;;;;0.00;0.00;;;;;;;25.13;100.00;100606.56;2616875;54;20311;-64
2022/06/20 18:22:25;;;;;;;0.10;0.10;;;;;;;25.11;100.00;100608.63;2616937;47;20145;-63
2022/06/20 18:25:00;;;;;;;0.00;0.00;;;;;;;25.17;100.00;100605.19;2616969;47;20148;-64
2022/06/20 18:27:36;;;;;;;0.00;0.00;;;;;;;25.15;100.00;100608.06;2617373;39;20593;-64
2022/06/20 18:30:09;;;;;;;0.00;0.00;;;;;;;25.08;100.00;100601.00;2617904;39;20200;-64
2022/06/20 18:32:45;;;;;;;0.00;0.00;;;;;;;25.00;100.00;100604.59;2616542;54;20180;-64
2022/06/20 18:35:21;;;;;;;0.00;0.00;;;;;;;24.94;100.00;100605.38;2617036;39;20196;-64
2022/06/20 18:38:20;;;;;;;0.00;0.00;;;;;;;25.05;100.00;100614.66;2618288;54;20169;-63
2022/06/20 18:41:16;;;;;;;0.00;0.00;;;;;;;25.04;100.00;100611.19;2616894;54;20211;-64
2022/06/20 18:43:54;;;;;;;0.00;0.00;;;;;;;25.04;100.00;100611.19;2616927;54;20168;-63
2022/06/20 18:46:28;;;;;;;0.00;0.00;;;;;;;24.93;100.00;100611.69;2616727;54;20538;-64
2022/06/20 18:49:22;;;;;;;0.00;0.00;;;;;;;24.84;100.00;100611.94;2616968;39;20497;-65
2022/06/20 18:52:14;;;;;;;0.00;0.00;;;;;;;24.89;100.00;100618.38;2616680;54;20142;-64
2022/06/20 18:54:57;;;;;;;0.00;0.00;;;;;;;24.89;100.00;100610.41;2616709;54;20149;-63
2022/06/20 18:57:43;;;;;;;0.00;0.00;;;;;;;24.88;100.00;100610.56;2616990;47;20150;-65
2022/06/20 19:00:26;;;;;;;0.00;0.00;;;;;;;24.82;100.00;100608.66;2616929;54;20133;-69
2022/06/20 19:03:20;;;;;;;0.00;0.00;;;;;;;24.84;100.00;100606.63;2616515;54;20138;-65
2022/06/20 19:06:10;;;;;;;0.00;0.00;;;;;;;24.86;100.00;100610.78;2616465;54;20141;-63
2022/06/20 19:09:13;;;;;;;0.00;0.00;;;;;;;24.86;100.00;100610.78;2616728;54;20148;-64
2022/06/20 19:12:09;;;;;;;0.00;0.00;;;;;;;24.85;100.00;100603.00;2616700;54;20145;-64
2022/06/20 19:14:53;;;;;;;0.00;0.00;;;;;;;24.66;100.00;100605.22;2616525;54;20142;-63
2022/06/20 19:17:52;;;;;;;0.00;0.00;;;;;;;24.00;100.00;100607.91;2616583;54;20148;-64
2022/06/20 19:20:59;;;;;;;0.95;0.80;;;;;;;23.67;100.00;100610.09;2617840;54;20134;-64
2022/06/20 19:23:43;;;;;;;0.00;0.00;;;;;;;24.07;100.00;100603.56;2616862;54;20153;-64
2022/06/20 19:26:22;;;;;;;0.00;0.00;;;;;;;23.97;100.00;100597.69;2616670;54;20134;-63
2022/06/20 19:29:02;;;;;;;0.05;0.05;;;;;;;23.61;100.00;100608.97;2617258;39;20537;-63
2022/06/20 19:31:35;;;;;;;0.00;0.00;;;;;;;23.59;100.00;100608.28;2616597;54;20263;-63
2022/06/20 19:34:12;;;;;;;0.00;0.00;;;;;;;23.91;100.00;100609.84;2616502;54;20154;-64
2022/06/20 19:36:46;;;;;;;0.30;0.22;;;;;;;23.77;100.00;100602.69;2616472;54;20165;-64
2022/06/20 19:39:30;;;;;;;0.35;0.35;;;;;;;23.40;100.00;100606.13;2616595;54;20148;-62
2022/06/20 19:42:08;;;;;;;0.00;0.00;;;;;;;23.51;100.00;100603.06;2617125;39;20666;-63
2022/06/20 19:44:42;;;;;;;1.20;1.20;;;;;;;23.52;100.00;100602.06;2616879;54;20134;-63
2022/06/20 19:47:33;;;;;;;0.10;0.10;;;;;;;22.97;100.00;100598.81;2616981;54;20149;-63
2022/06/20 19:50:33;;;;;;;1.08;1.08;;;;;;;22.36;100.00;100597.72;2616347;54;20138;-64
2022/06/20 19:53:12;;;;;;;0.43;0.43;;;;;;;22.63;100.00;100601.78;2616622;54;20149;-63
2022/06/20 19:55:48;;;;;;;0.00;0.00;;;;;;;22.76;100.00;100588.81;2616287;47;20149;-62
2022/06/20 19:58:44;;;;;;;0.00;0.00;;;;;;;22.55;100.00;100583.31;2616513;54;20148;-63
2022/06/20 20:01:41;;;;;;;0.00;0.00;;;;;;;21.97;100.00;100578.34;2616150;54;20149;-63
2022/06/20 20:04:27;;;;;;;0.00;0.00;;;;;;;21.63;100.00;100582.00;2618618;39;20654;-63
2022/06/20 20:07:23;;;;;;;0.45;0.45;;;;;;;21.74;100.00;100583.50;2617940;54;20147;-63
2022/06/20 20:09:55;;;;;;;0.10;0.10;;;;;;;22.04;100.00;100579.31;2616718;54;20142;-63
2022/06/20 20:12:26;;;;;;;0.20;0.20;;;;;;;22.41;100.00;100574.25;2616469;54;20141;-63
2022/06/20 20:15:21;;;;;;;0.30;0.30;;;;;;;22.64;100.00;100574.31;2618702;54;20663;-64
2022/06/20 20:18:20;;;;;;;0.35;0.35;;;;;;;22.66;100.00;100575.81;2616502;39;20525;-63
2022/06/20 20:21:12;;;;;;;0.00;0.00;;;;;;;22.01;100.00;100569.09;2616198;47;20134;-62
2022/06/20 20:23:47;;;;;;;0.70;0.68;;;;;;;21.24;100.00;100576.56;2616433;54;20206;-63